Manuel Derqui, Argentina
Current Conditions -  °F | °C
As of 9:00 PM on Sunday 23 Nov 2014 (Local Time) from SARC Reporting Station
Clear Clear  
Wind Chill: 25°   Ceiling: Unl
Heat Index: 26°   Visibility: 5mi
Dew Point: 15°   Wind: 2mph
Humidity: 54%   Direction: NA
Pressure: 29.8"   Gusts: NA
Location:  27.83°S, 58.8°W
Report Text: SARC 240000Z VRB02KT 8000 NSC 25/15 Q1009
Loading
Personal Weather Stations






























Interactive Weather Map New forecast layout! Learn more

10-Day Weather Forecast

Advertisements
Track Severe Weather on mobile